createdAt,value
2023-01-08T00:01:08.286Z,100453.66
2023-01-08T00:04:11.240Z,100446.66
2023-01-08T00:07:13.844Z,100443.06
2023-01-08T00:10:16.818Z,100435.09
2023-01-08T00:13:19.391Z,100435.94
2023-01-08T00:16:22.225Z,100438.66
2023-01-08T00:19:24.965Z,100427.88
2023-01-08T00:22:27.742Z,100419.78
2023-01-08T00:28:34.574Z,100406.56
2023-01-08T00:31:37.133Z,100404.81
2023-01-08T00:34:40.038Z,100387.72
2023-01-08T00:37:45.903Z,100397.72
2023-01-08T00:40:48.858Z,100399.34
2023-01-08T00:43:51.385Z,100400.25
2023-01-08T00:46:54.845Z,100395.78
2023-01-08T00:49:57.357Z,100399.34
2023-01-08T00:53:00.902Z,100391.38
2023-01-08T00:56:06.102Z,100398.62
2023-01-08T00:59:08.981Z,100396.91
2023-01-08T01:02:11.659Z,100402.28
2023-01-08T01:05:15.591Z,100396.97
2023-01-08T01:08:18.342Z,100400.50
2023-01-08T01:11:25.886Z,100402.38
2023-01-08T01:17:34.641Z,100399.75
2023-01-08T01:20:37.292Z,100404.09
2023-01-08T01:23:40.940Z,100403.19
2023-01-08T01:26:43.620Z,100403.19
2023-01-08T01:29:46.442Z,100409.50
2023-01-08T01:32:49.046Z,100400.63
2023-01-08T01:36:00.039Z,100397.06
2023-01-08T01:39:03.524Z,100391.72
2023-01-08T01:42:06.476Z,100397.84
2023-01-08T01:45:22.575Z,100395.22
2023-01-08T01:48:25.619Z,100394.38
2023-01-08T01:51:31.860Z,100394.47
2023-01-08T01:54:36.227Z,100378.53
2023-01-08T01:57:39.482Z,100369.66
2023-01-08T02:00:43.329Z,100375.03
2023-01-08T02:03:46.189Z,100375.00
2023-01-08T02:06:58.164Z,100383.88
2023-01-08T02:10:10.676Z,100377.62
2023-01-08T02:13:20.582Z,100366.97
2023-01-08T02:16:51.175Z,100366.09
2023-01-08T02:19:58.863Z,100365.28
2023-01-08T02:23:07.801Z,100360.81
2023-01-08T02:26:20.110Z,100358.16
2023-01-08T02:29:24.880Z,100357.25
2023-01-08T02:32:28.589Z,100359.91
2023-01-08T02:35:41.418Z,100367.03
2023-01-08T02:39:12.142Z,100371.56
2023-01-08T02:42:20.793Z,100373.34
2023-01-08T02:45:35.461Z,100365.31
2023-01-08T02:48:42.803Z,100353.81
2023-01-08T02:51:51.994Z,100349.34
2023-01-08T02:54:55.866Z,100342.22
2023-01-08T02:57:59.217Z,100352.94
2023-01-08T03:01:09.989Z,100345.84
2023-01-08T03:04:18.807Z,100344.97
2023-01-08T03:07:21.574Z,100337.88
2023-01-08T03:10:26.590Z,100337.00
2023-01-08T03:13:55.112Z,100332.59
2023-01-08T03:17:06.975Z,100333.47
2023-01-08T03:20:13.771Z,100323.72
2023-01-08T03:23:18.323Z,100321.97
2023-01-08T03:26:25.065Z,100316.66
2023-01-08T03:29:28.392Z,100310.38
2023-01-08T03:32:31.686Z,100312.22
2023-01-08T03:35:36.775Z,100308.69
2023-01-08T03:38:44.007Z,100306.03
2023-01-08T03:41:48.126Z,100306.00
2023-01-08T03:44:51.566Z,100312.28
2023-01-08T03:47:55.179Z,100298.03
2023-01-08T03:50:57.790Z,100301.63
2023-01-08T03:54:00.611Z,100294.50
2023-01-08T03:57:03.129Z,100299.84
2023-01-08T04:00:06.754Z,100286.50
2023-01-08T04:03:09.805Z,100286.50
2023-01-08T04:06:12.440Z,100298.97
2023-01-08T04:09:15.326Z,100293.66
2023-01-08T04:12:17.908Z,100299.00
2023-01-08T04:15:21.249Z,100294.56
2023-01-08T04:18:23.884Z,100291.00
2023-01-08T04:21:26.714Z,100285.69
2023-01-08T04:24:29.355Z,100282.13
2023-01-08T04:27:32.200Z,100285.69
2023-01-08T04:30:34.796Z,100271.44
2023-01-08T04:33:37.636Z,100275.88
2023-01-08T04:36:40.182Z,100278.53
2023-01-08T04:39:43.645Z,100278.53
2023-01-08T04:42:46.169Z,100279.44
2023-01-08T04:45:49.086Z,100269.66
2023-01-08T04:48:51.619Z,100272.34
2023-01-08T04:51:54.506Z,100269.69
2023-01-08T04:54:57.023Z,100266.12
2023-01-08T04:58:00.045Z,100267.94
2023-01-08T05:01:19.643Z,100262.59
2023-01-08T05:04:22.585Z,100263.47
2023-01-08T05:07:25.186Z,100251.91
2023-01-08T05:10:28.068Z,100242.12
2023-01-08T05:13:30.638Z,100235.91
2023-01-08T05:16:33.507Z,100235.00
2023-01-08T05:19:38.082Z,100235.00
2023-01-08T05:22:41.252Z,100239.44
2023-01-08T05:25:43.824Z,100235.84
2023-01-08T05:28:47.537Z,100239.34
2023-01-08T05:31:50.049Z,100248.19
2023-01-08T05:34:52.946Z,100244.56
2023-01-08T05:37:55.487Z,100243.69
2023-01-08T05:40:58.424Z,100238.34
2023-01-08T05:44:01.091Z,100225.84
2023-01-08T05:47:04.058Z,100241.84
2023-01-08T05:50:06.914Z,100247.22
2023-01-08T05:53:10.261Z,100243.66
2023-01-08T05:56:12.955Z,100247.22
2023-01-08T05:59:15.812Z,100244.53
2023-01-08T06:02:18.441Z,100240.09
2023-01-08T06:05:21.257Z,100233.84
2023-01-08T06:08:24.160Z,100215.16
2023-01-08T06:11:26.977Z,100225.84
2023-01-08T06:14:29.597Z,100221.41
2023-01-08T06:17:32.534Z,100208.94
2023-01-08T06:20:35.100Z,100208.91
2023-01-08T06:23:37.950Z,100219.56
2023-01-08T06:26:40.536Z,100214.22
2023-01-08T06:29:43.582Z,100216.91
2023-01-08T06:32:46.268Z,100212.50
2023-01-08T06:35:49.218Z,100211.59
2023-01-08T06:38:51.917Z,100214.28
2023-01-08T06:41:54.799Z,100205.41
2023-01-08T06:44:57.382Z,100203.63
2023-01-08T06:48:05.031Z,100219.69
2023-01-08T06:51:08.358Z,100214.34
2023-01-08T06:54:13.505Z,100211.69
2023-01-08T06:57:16.267Z,100214.34
2023-01-08T07:00:19.362Z,100209.03
2023-01-08T07:03:22.249Z,100206.37
2023-01-08T07:06:25.386Z,100201.94
2023-01-08T07:09:28.168Z,100201.03
2023-01-08T07:12:31.092Z,100198.41
2023-01-08T07:15:33.768Z,100192.19
2023-01-08T07:18:37.333Z,100193.06
2023-01-08T07:21:39.940Z,100187.75
2023-01-08T07:24:42.855Z,100184.19
2023-01-08T07:27:45.327Z,100180.69
2023-01-08T07:30:48.362Z,100156.66
2023-01-08T07:33:51.035Z,100186.94
2023-01-08T07:36:53.882Z,100170.94
2023-01-08T07:39:56.457Z,100167.38
2023-01-08T07:43:03.215Z,100165.63
2023-01-08T07:46:05.883Z,100161.22
2023-01-08T07:49:08.855Z,100171.84
2023-01-08T07:52:13.756Z,100165.63
2023-01-08T07:55:16.735Z,100170.19
2023-01-08T07:58:19.372Z,100169.28
2023-01-08T08:01:23.278Z,100165.72
2023-01-08T08:04:26.419Z,100157.72
2023-01-08T08:07:31.425Z,100145.25
2023-01-08T08:10:34.531Z,100148.84
2023-01-08T08:13:37.141Z,100141.78
2023-01-08T08:16:40.036Z,100142.69
2023-01-08T08:19:44.249Z,100149.84
2023-01-08T08:22:47.402Z,100136.50
2023-01-08T08:25:51.852Z,100132.97
2023-01-08T08:28:54.637Z,100133.00
2023-01-08T08:31:57.484Z,100133.88
2023-01-08T08:35:00.940Z,100133.91
2023-01-08T08:38:04.431Z,100137.47
2023-01-08T08:41:07.489Z,100138.41
2023-01-08T08:44:10.107Z,100133.06
2023-01-08T08:47:13.137Z,100120.62
2023-01-08T08:50:15.875Z,100124.16
2023-01-08T08:53:18.871Z,100116.16
2023-01-08T08:56:21.419Z,100118.84
2023-01-08T08:59:24.272Z,100118.87
2023-01-08T09:02:27.058Z,100119.78
2023-01-08T09:05:30.371Z,100117.12
2023-01-08T09:08:32.962Z,100105.56
2023-01-08T09:11:35.837Z,100105.56
2023-01-08T09:14:38.431Z,100109.13
2023-01-08T09:17:41.340Z,100101.09
2023-01-08T09:20:44.045Z,100095.75
2023-01-08T09:23:48.678Z,100088.63
2023-01-08T09:26:53.810Z,100079.72
2023-01-08T09:29:56.619Z,100081.50
2023-01-08T09:33:03.298Z,100064.56
2023-01-08T09:36:10.909Z,100068.16
2023-01-08T09:39:14.108Z,100061.00
2023-01-08T09:42:20.965Z,100062.81
2023-01-08T09:45:35.283Z,100063.69
2023-01-08T09:48:39.912Z,100066.34
2023-01-08T09:51:43.033Z,100063.69
2023-01-08T09:54:45.977Z,100051.22
2023-01-08T09:57:49.044Z,100042.31
2023-01-08T10:00:52.422Z,100039.63
2023-01-08T10:04:10.397Z,100023.59
2023-01-08T10:07:31.409Z,100007.56
2023-01-08T10:10:34.850Z,100002.25
2023-01-08T10:13:39.475Z,99993.31
2023-01-08T10:16:42.912Z,99993.34
2023-01-08T10:19:45.976Z,99976.41
2023-01-08T10:22:49.305Z,99972.84
2023-01-08T10:25:55.360Z,99971.97
2023-01-08T10:29:17.369Z,99965.72
2023-01-08T10:32:26.987Z,99959.47
2023-01-08T10:35:34.820Z,99961.28
2023-01-08T10:38:42.272Z,99953.25
2023-01-08T10:41:45.067Z,99956.81
2023-01-08T10:44:55.685Z,99940.75
2023-01-08T10:47:59.842Z,99944.31
2023-01-08T10:51:26.555Z,99928.25
2023-01-08T10:54:40.824Z,99918.41
2023-01-08T10:57:59.114Z,99918.41
2023-01-08T11:01:15.014Z,99906.81
2023-01-08T11:04:33.175Z,99896.09
2023-01-08T11:07:36.121Z,99896.06
2023-01-08T11:10:38.702Z,99886.25
2023-01-08T11:13:41.555Z,99877.31
2023-01-08T11:16:44.125Z,99879.06
2023-01-08T11:19:47.051Z,99877.28
2023-01-08T11:22:50.768Z,99874.62
2023-01-08T11:26:16.034Z,99871.03
2023-01-08T11:29:24.680Z,99862.09
2023-01-08T11:32:46.598Z,99865.63
2023-01-08T11:35:51.077Z,99865.66
2023-01-08T11:38:53.929Z,99867.41
2023-01-08T11:42:08.275Z,99863.84
2023-01-08T11:45:17.863Z,99876.31
2023-01-08T11:48:42.551Z,99881.59
2023-01-08T11:51:52.325Z,99890.47
2023-01-08T11:55:16.275Z,99889.56
2023-01-08T11:58:23.500Z,99882.41
2023-01-08T12:01:54.596Z,99876.19
2023-01-08T12:05:26.170Z,99867.25
2023-01-08T12:09:16.752Z,99863.63
2023-01-08T12:12:19.517Z,99844.84
2023-01-08T12:15:55.523Z,99842.19
2023-01-08T12:19:03.550Z,99842.19
2023-01-08T12:22:32.392Z,99843.97
2023-01-08T12:25:59.572Z,99845.75
2023-01-08T12:29:05.244Z,99840.41
2023-01-08T12:32:11.576Z,99836.84
2023-01-08T12:35:20.476Z,99836.72
2023-01-08T12:38:27.948Z,99822.28
2023-01-08T12:41:32.261Z,99815.09
2023-01-08T12:44:36.788Z,99809.00
2023-01-08T12:47:40.855Z,99800.03
2023-01-08T12:50:43.822Z,99795.34
2023-01-08T12:54:11.365Z,99785.53
2023-01-08T12:57:40.000Z,99779.50
2023-01-08T13:01:01.301Z,99782.28
2023-01-08T13:04:05.302Z,99774.22
2023-01-08T13:07:16.475Z,99768.88
2023-01-08T13:10:24.651Z,99768.84
2023-01-08T13:13:34.572Z,99770.72
2023-01-08T13:16:39.689Z,99771.69
2023-01-08T13:19:43.641Z,99771.66
2023-01-08T13:22:53.065Z,99776.06
2023-01-08T13:26:00.247Z,99785.81
2023-01-08T13:29:23.594Z,99792.78
2023-01-08T13:32:40.229Z,99798.91
2023-01-08T13:35:43.071Z,99784.66
2023-01-08T13:38:45.811Z,99779.37
2023-01-08T13:42:22.983Z,99777.72
2023-01-08T13:45:28.913Z,99773.31
2023-01-08T13:48:40.962Z,99778.78
2023-01-08T13:51:45.174Z,99760.16
2023-01-08T13:54:48.618Z,99757.50
2023-01-08T13:57:54.473Z,99757.63
2023-01-08T14:00:58.037Z,99766.69
2023-01-08T14:04:01.008Z,99785.50
2023-01-08T14:07:16.000Z,99798.16
2023-01-08T14:10:20.016Z,99816.03
2023-01-08T14:13:31.030Z,99823.22
2023-01-08T14:16:37.139Z,99818.81
2023-01-08T14:19:41.090Z,99820.59
2023-01-08T14:22:43.946Z,99823.28
2023-01-08T14:25:49.848Z,99825.09
2023-01-08T14:28:53.663Z,99829.53
2023-01-08T14:31:58.059Z,99821.50
2023-01-08T14:35:02.111Z,99824.19
2023-01-08T14:38:05.846Z,99817.03
2023-01-08T14:41:12.549Z,99819.69
2023-01-08T14:44:17.392Z,99822.28
2023-01-08T14:47:22.416Z,99824.03
2023-01-08T14:50:30.479Z,99816.88
2023-01-08T14:53:36.665Z,99820.41
2023-01-08T14:56:39.288Z,99829.25
2023-01-08T14:59:42.321Z,99808.78
2023-01-08T15:02:46.452Z,99807.84
2023-01-08T15:05:50.061Z,99802.47
2023-01-08T15:08:52.885Z,99798.03
2023-01-08T15:11:58.029Z,99794.47
2023-01-08T15:15:11.685Z,99802.41
2023-01-08T15:18:14.569Z,99800.63
2023-01-08T15:21:21.464Z,99813.06
2023-01-08T15:24:34.396Z,99811.34
2023-01-08T15:27:37.832Z,99811.34
2023-01-08T15:30:45.656Z,99814.03
2023-01-08T15:33:48.253Z,99811.37
2023-01-08T15:36:51.095Z,99810.53
2023-01-08T15:39:53.832Z,99804.31
2023-01-08T15:43:11.981Z,99802.56
2023-01-08T15:46:15.780Z,99807.03
2023-01-08T15:49:18.681Z,99814.12
2023-01-08T15:52:23.628Z,99824.78
2023-01-08T15:55:26.771Z,99826.59
2023-01-08T15:58:29.707Z,99829.25
2023-01-08T16:01:32.923Z,99832.78
2023-01-08T16:04:35.738Z,99830.16
2023-01-08T16:07:42.351Z,99830.03
2023-01-08T16:10:46.047Z,99836.25
2023-01-08T16:13:48.743Z,99837.12
2023-01-08T16:16:51.629Z,99842.44
2023-01-08T16:19:54.201Z,99826.41
2023-01-08T16:22:57.305Z,99832.66
2023-01-08T16:25:59.951Z,99838.00
2023-01-08T16:29:02.961Z,99830.84
2023-01-08T16:32:06.079Z,99829.91
2023-01-08T16:35:10.774Z,99827.25
2023-01-08T16:38:14.151Z,99829.91
2023-01-08T16:41:17.235Z,99820.22
2023-01-08T16:44:22.764Z,99813.09
2023-01-08T16:47:25.820Z,99821.03
2023-01-08T16:50:28.539Z,99797.91
2023-01-08T16:53:32.511Z,99814.88
2023-01-08T16:56:35.119Z,99816.56
2023-01-08T16:59:38.191Z,99806.62
2023-01-08T17:02:40.921Z,99803.87
2023-01-08T17:05:44.011Z,99803.81
2023-01-08T17:08:46.765Z,99809.00
2023-01-08T17:11:49.786Z,99815.06
2023-01-08T17:14:52.510Z,99825.66
2023-01-08T17:17:55.977Z,99822.94
2023-01-08T17:20:58.585Z,99832.63
2023-01-08T17:24:01.841Z,99827.22
2023-01-08T17:27:04.537Z,99828.94
2023-01-08T17:30:11.679Z,99830.47
2023-01-08T17:33:14.820Z,99836.62
2023-01-08T17:36:20.181Z,99833.97
2023-01-08T17:39:22.991Z,99827.59
2023-01-08T17:42:27.502Z,99824.88
2023-01-08T17:45:30.365Z,99808.88
2023-01-08T17:48:34.165Z,99823.84
2023-01-08T17:51:38.594Z,99823.66
2023-01-08T17:54:41.770Z,99839.47
2023-01-08T17:57:44.354Z,99841.25
2023-01-08T18:00:47.362Z,99833.25
2023-01-08T18:03:50.547Z,99842.81
2023-01-08T18:06:53.369Z,99826.03
2023-01-08T18:09:57.742Z,99837.38
2023-01-08T18:13:00.392Z,99842.63
2023-01-08T18:16:06.158Z,99832.87
2023-01-08T18:19:09.252Z,99816.84
2023-01-08T18:22:12.347Z,99809.69
2023-01-08T18:25:15.123Z,99813.16
2023-01-08T18:28:18.159Z,99823.63
2023-01-08T18:31:21.631Z,99822.66
2023-01-08T18:34:26.858Z,99825.25
2023-01-08T18:37:32.320Z,99840.16
2023-01-08T18:40:36.053Z,99842.81
2023-01-08T18:43:39.475Z,99839.22
2023-01-08T18:46:42.348Z,99850.75
2023-01-08T18:49:45.177Z,99847.41
2023-01-08T18:52:48.064Z,99842.06
2023-01-08T18:55:50.686Z,99834.97
2023-01-08T18:58:53.770Z,99832.25
2023-01-08T19:01:56.554Z,99834.84
2023-01-08T19:04:59.762Z,99848.03
2023-01-08T19:08:02.389Z,99850.72
2023-01-08T19:11:06.548Z,99850.69
2023-01-08T19:14:09.562Z,99845.34
2023-01-08T19:17:12.539Z,99840.03
2023-01-08T19:20:15.151Z,99830.28
2023-01-08T19:23:18.357Z,99824.94
2023-01-08T19:26:21.168Z,99817.09
2023-01-08T19:29:24.243Z,99809.22
2023-01-08T19:32:27.115Z,99802.28
2023-01-08T19:35:30.088Z,99812.91
2023-01-08T19:38:32.739Z,99815.59
2023-01-08T19:41:54.447Z,99812.91
2023-01-08T19:44:57.640Z,99813.62
2023-01-08T19:48:00.753Z,99822.34
2023-01-08T19:51:08.227Z,99810.06
2023-01-08T19:54:12.073Z,99797.75
2023-01-08T19:57:15.956Z,99797.72
2023-01-08T20:00:22.347Z,99795.97
2023-01-08T20:03:28.437Z,99802.19
2023-01-08T20:06:31.193Z,99792.50
2023-01-08T20:09:35.061Z,99789.84
2023-01-08T20:12:38.615Z,99790.75
2023-01-08T20:15:41.591Z,99780.94
2023-01-08T20:18:46.025Z,99766.91
2023-01-08T20:21:49.018Z,99777.47
2023-01-08T20:24:53.192Z,99765.09
2023-01-08T20:27:56.016Z,99761.50
2023-01-08T20:31:07.969Z,99763.22
2023-01-08T20:34:15.475Z,99755.94
2023-01-08T20:37:18.038Z,99763.03
2023-01-08T20:40:21.089Z,99756.78
2023-01-08T20:43:24.020Z,99737.13
2023-01-08T20:46:28.689Z,99772.56
2023-01-08T20:49:31.604Z,99783.94
2023-01-08T20:52:34.570Z,99779.44
2023-01-08T20:55:37.391Z,99783.00
2023-01-08T20:58:44.360Z,99773.19
2023-01-08T21:01:47.013Z,99774.00
2023-01-08T21:04:50.375Z,99766.03
2023-01-08T21:07:52.993Z,99747.56
2023-01-08T21:11:03.822Z,99736.06
2023-01-08T21:14:08.131Z,99731.81
2023-01-08T21:17:11.011Z,99728.34
2023-01-08T21:20:13.990Z,99720.53
2023-01-08T21:23:16.845Z,99704.66
2023-01-08T21:26:19.551Z,99704.66
2023-01-08T21:29:23.609Z,99700.25
2023-01-08T21:32:26.295Z,99709.06
2023-01-08T21:35:29.199Z,99707.22
2023-01-08T21:38:32.862Z,99704.53
2023-01-08T21:41:54.696Z,99695.72
2023-01-08T21:45:15.922Z,99688.56
2023-01-08T21:48:18.789Z,99679.66
2023-01-08T21:51:39.824Z,99669.81
2023-01-08T21:54:42.722Z,99662.81
2023-01-08T21:57:45.708Z,99648.59
2023-01-08T22:00:48.803Z,99645.91
2023-01-08T22:03:51.716Z,99644.16
2023-01-08T22:06:54.272Z,99632.53
2023-01-08T22:09:57.153Z,99628.03
2023-01-08T22:12:59.730Z,99622.72
2023-01-08T22:16:09.167Z,99619.97
2023-01-08T22:19:11.725Z,99608.50
2023-01-08T22:22:14.513Z,99608.47
2023-01-08T22:25:17.226Z,99596.03
2023-01-08T22:28:20.070Z,99603.13
2023-01-08T22:31:22.671Z,99588.09
2023-01-08T22:34:26.019Z,99587.22
2023-01-08T22:37:28.557Z,99585.47
2023-01-08T22:40:31.612Z,99592.62
2023-01-08T22:43:34.103Z,99592.78
2023-01-08T22:46:36.941Z,99586.62
2023-01-08T22:49:39.559Z,99580.59
2023-01-08T22:52:42.361Z,99579.81
2023-01-08T22:55:49.165Z,99572.84
2023-01-08T22:58:52.257Z,99561.44
2023-01-08T23:01:55.063Z,99553.59
2023-01-08T23:04:57.902Z,99548.44
2023-01-08T23:08:01.797Z,99540.59
2023-01-08T23:11:05.916Z,99540.72
2023-01-08T23:17:16.763Z,99532.00
2023-01-08T23:20:20.739Z,99518.72
2023-01-08T23:23:23.209Z,99513.44
2023-01-08T23:26:28.618Z,99504.53
2023-01-08T23:29:32.185Z,99507.22
2023-01-08T23:32:35.074Z,99516.00
2023-01-08T23:35:37.644Z,99511.56
2023-01-08T23:38:40.476Z,99500.13
2023-01-08T23:41:43.180Z,99499.97
2023-01-08T23:44:46.019Z,99493.72
2023-01-08T23:47:48.557Z,99483.13
2023-01-08T23:50:51.362Z,99483.13
2023-01-08T23:53:54.312Z,99477.84
2023-01-08T23:56:57.129Z,99478.66
2023-01-08T23:59:59.821Z,99469.81
